createdAt,value
2024-03-16T00:02:01.647Z,3.70
2024-03-16T00:04:34.293Z,3.80
2024-03-16T00:07:04.973Z,3.95
2024-03-16T00:09:34.979Z,4.05
2024-03-16T00:12:05.698Z,3.70
2024-03-16T00:14:35.868Z,4.45
2024-03-16T00:17:06.427Z,3.00
2024-03-16T00:19:39.058Z,2.85
2024-03-16T00:22:10.681Z,3.55
2024-03-16T00:24:40.665Z,3.10
2024-03-16T00:27:11.525Z,3.00
2024-03-16T00:29:41.368Z,2.15
2024-03-16T00:32:11.756Z,2.40
2024-03-16T00:34:44.377Z,2.40
2024-03-16T00:37:14.508Z,3.53
2024-03-16T00:39:44.372Z,2.80
2024-03-16T00:42:14.429Z,2.60
2024-03-16T00:44:44.255Z,3.25
2024-03-16T00:47:14.994Z,2.78
2024-03-16T00:49:47.521Z,2.80
2024-03-16T00:52:17.797Z,2.40
2024-03-16T00:54:48.151Z,3.00
2024-03-16T00:57:18.199Z,3.00
2024-03-16T00:59:48.051Z,2.97
2024-03-16T01:02:19.223Z,3.00
2024-03-16T01:04:51.705Z,2.95
2024-03-16T01:07:21.903Z,2.95
2024-03-16T01:09:52.265Z,2.85
2024-03-16T01:12:22.260Z,3.45
2024-03-16T01:14:52.146Z,3.13
2024-03-16T01:17:22.549Z,3.55
2024-03-16T01:19:56.167Z,3.40
2024-03-16T01:22:26.023Z,3.35
2024-03-16T01:24:56.242Z,3.30
2024-03-16T01:27:26.347Z,3.42
2024-03-16T01:29:56.259Z,3.25
2024-03-16T01:32:26.254Z,3.35
2024-03-16T01:34:59.102Z,2.60
2024-03-16T01:37:31.120Z,2.78
2024-03-16T01:40:01.964Z,3.53
2024-03-16T01:42:32.131Z,3.50
2024-03-16T01:45:11.440Z,3.22
2024-03-16T01:47:41.931Z,3.13
2024-03-16T01:50:14.606Z,2.70
2024-03-16T01:52:44.460Z,3.97
2024-03-16T01:55:14.935Z,3.50
2024-03-16T01:57:44.983Z,3.63
2024-03-16T02:00:16.587Z,3.25
2024-03-16T02:02:46.509Z,3.63
2024-03-16T02:05:18.935Z,3.58
2024-03-16T02:07:49.123Z,4.13
2024-03-16T02:10:19.484Z,3.58
2024-03-16T02:12:50.258Z,3.55
2024-03-16T02:15:20.912Z,3.47
2024-03-16T02:17:51.812Z,3.70
2024-03-16T02:20:25.294Z,3.60
2024-03-16T02:22:57.763Z,3.58
2024-03-16T02:25:27.796Z,3.30
2024-03-16T02:27:58.041Z,3.60
2024-03-16T02:30:27.996Z,3.58
2024-03-16T02:32:58.053Z,3.88
2024-03-16T02:35:28.328Z,4.28
2024-03-16T02:38:00.842Z,4.00
2024-03-16T02:40:30.719Z,3.80
2024-03-16T02:43:01.184Z,3.85
2024-03-16T02:45:31.123Z,4.28
2024-03-16T02:48:01.664Z,5.75
2024-03-16T02:50:31.656Z,3.85
2024-03-16T02:53:05.112Z,4.40
2024-03-16T02:55:35.171Z,3.58
2024-03-16T02:58:06.260Z,4.90
2024-03-16T03:00:36.546Z,4.53
2024-03-16T03:03:08.434Z,4.05
2024-03-16T03:08:11.561Z,4.10
2024-03-16T03:10:42.767Z,4.57
2024-03-16T03:13:12.764Z,3.58
2024-03-16T03:15:43.111Z,3.25
2024-03-16T03:18:13.082Z,3.55
2024-03-16T03:20:42.914Z,3.72
2024-03-16T03:23:15.410Z,3.67
2024-03-16T03:25:46.303Z,3.40
2024-03-16T03:28:16.436Z,3.92
2024-03-16T03:30:46.596Z,3.35
2024-03-16T03:33:16.696Z,3.25
2024-03-16T03:35:46.528Z,3.22
2024-03-16T03:38:19.184Z,3.45
2024-03-16T03:40:49.220Z,2.72
2024-03-16T03:43:23.222Z,3.22
2024-03-16T03:45:56.494Z,3.20
2024-03-16T03:48:37.334Z,3.15
2024-03-16T03:51:07.923Z,3.20
2024-03-16T03:53:40.575Z,4.03
2024-03-16T03:56:10.602Z,3.55
2024-03-16T03:58:40.467Z,3.58
2024-03-16T04:01:10.394Z,2.85
2024-03-16T04:03:40.736Z,3.30
2024-03-16T04:06:10.790Z,2.65
2024-03-16T04:08:43.264Z,3.60
2024-03-16T04:11:13.422Z,3.10
2024-03-16T04:13:43.252Z,2.95
2024-03-16T04:16:16.132Z,3.33
2024-03-16T04:18:46.244Z,4.63
2024-03-16T04:21:17.254Z,4.15
2024-03-16T04:23:50.709Z,4.13
2024-03-16T04:26:20.525Z,4.07
2024-03-16T04:28:51.401Z,3.85
2024-03-16T04:31:21.235Z,3.33
2024-03-16T04:33:52.663Z,3.00
2024-03-16T04:36:24.179Z,3.88
2024-03-16T04:38:56.836Z,3.13
2024-03-16T04:41:26.910Z,4.32
2024-03-16T04:43:57.135Z,3.70
2024-03-16T04:46:30.223Z,3.63
2024-03-16T04:49:01.314Z,3.58
2024-03-16T04:51:31.569Z,3.00
2024-03-16T04:54:04.905Z,3.67
2024-03-16T04:56:35.014Z,4.05
2024-03-16T04:59:04.971Z,4.95
2024-03-16T05:01:34.935Z,4.38
2024-03-16T05:04:05.178Z,4.90
2024-03-16T05:06:35.562Z,4.95
2024-03-16T05:09:10.762Z,4.75
2024-03-16T05:11:41.215Z,5.45
2024-03-16T05:14:11.375Z,4.32
2024-03-16T05:16:43.022Z,3.97
2024-03-16T05:19:13.120Z,4.25
2024-03-16T05:21:43.850Z,4.03
2024-03-16T05:24:16.607Z,4.90
2024-03-16T05:26:46.864Z,3.83
2024-03-16T05:29:16.930Z,3.80
2024-03-16T05:32:00.734Z,4.13
2024-03-16T05:34:30.667Z,4.15
2024-03-16T05:37:00.788Z,5.22
2024-03-16T05:39:33.537Z,4.65
2024-03-16T05:42:05.179Z,4.40
2024-03-16T05:44:36.815Z,4.57
2024-03-16T05:47:08.267Z,5.05
2024-03-16T05:49:40.810Z,5.03
2024-03-16T05:52:10.974Z,5.20
2024-03-16T05:54:43.623Z,5.65
2024-03-16T05:57:13.675Z,5.15
2024-03-16T05:59:43.545Z,5.35
2024-03-16T06:02:13.588Z,5.90
2024-03-16T06:04:43.606Z,5.55
2024-03-16T06:07:13.756Z,6.28
2024-03-16T06:09:49.929Z,7.22
2024-03-16T06:12:19.849Z,7.15
2024-03-16T06:14:52.197Z,7.00
2024-03-16T06:17:22.512Z,8.65
2024-03-16T06:19:55.143Z,8.10
2024-03-16T06:22:25.904Z,7.97
2024-03-16T06:25:00.880Z,9.13
2024-03-16T06:27:30.780Z,8.60
2024-03-16T06:30:02.470Z,8.27
2024-03-16T06:32:35.710Z,7.47
2024-03-16T06:35:05.686Z,7.85
2024-03-16T06:37:38.281Z,8.00
2024-03-16T06:40:12.393Z,7.35
2024-03-16T06:42:42.310Z,8.00
2024-03-16T06:45:12.898Z,7.85
2024-03-16T06:47:43.016Z,7.38
2024-03-16T06:50:14.354Z,6.93
2024-03-16T06:52:44.273Z,7.78
2024-03-16T06:55:19.499Z,9.30
2024-03-16T06:57:50.148Z,7.60
2024-03-16T07:00:20.262Z,7.93
2024-03-16T07:02:50.121Z,7.45
2024-03-16T07:05:19.893Z,7.68
2024-03-16T07:07:49.951Z,8.43
2024-03-16T07:10:22.372Z,7.70
2024-03-16T07:12:52.480Z,7.90
2024-03-16T07:15:22.649Z,7.90
2024-03-16T07:17:52.631Z,6.80
2024-03-16T07:20:22.528Z,7.50
2024-03-16T07:22:55.319Z,7.60
2024-03-16T07:25:28.545Z,6.55
2024-03-16T07:27:58.417Z,7.70
2024-03-16T07:30:28.688Z,7.43
2024-03-16T07:32:58.662Z,7.00
2024-03-16T07:35:29.359Z,6.05
2024-03-16T07:37:59.594Z,8.07
2024-03-16T07:40:33.197Z,6.47
2024-03-16T07:43:03.702Z,7.20
2024-03-16T07:45:34.191Z,7.68
2024-03-16T07:48:04.314Z,7.30
2024-03-16T07:50:34.485Z,8.93
2024-03-16T07:53:04.719Z,8.45
2024-03-16T07:55:37.544Z,6.00
2024-03-16T07:58:09.300Z,4.47
2024-03-16T08:00:41.255Z,4.63
2024-03-16T08:03:11.160Z,4.00
2024-03-16T08:05:41.812Z,3.80
2024-03-16T08:08:11.711Z,3.47
2024-03-16T08:10:44.209Z,4.20
2024-03-16T08:13:14.165Z,3.80
2024-03-16T08:15:44.123Z,3.75
2024-03-16T08:18:14.131Z,3.72
2024-03-16T08:20:44.102Z,3.17
2024-03-16T08:23:14.012Z,2.55
2024-03-16T08:25:48.180Z,2.58
2024-03-16T08:28:18.594Z,2.03
2024-03-16T08:30:48.523Z,2.45
2024-03-16T08:33:18.465Z,3.13
2024-03-16T08:35:48.709Z,2.33
2024-03-16T08:38:18.588Z,2.08
2024-03-16T08:40:51.125Z,2.65
2024-03-16T08:43:21.456Z,2.38
2024-03-16T08:45:51.355Z,2.55
2024-03-16T08:48:21.267Z,2.30
2024-03-16T08:50:51.177Z,2.63
2024-03-16T08:53:21.421Z,2.35
2024-03-16T08:55:58.077Z,2.47
2024-03-16T08:58:28.563Z,2.05
2024-03-16T09:00:59.888Z,2.30
2024-03-16T09:03:30.031Z,2.45
2024-03-16T09:06:00.351Z,3.13
2024-03-16T09:08:31.293Z,2.13
2024-03-16T09:11:03.803Z,2.50
2024-03-16T09:13:35.197Z,2.75
2024-03-16T09:16:07.559Z,3.72
2024-03-16T09:18:38.107Z,2.80
2024-03-16T09:21:09.500Z,2.38
2024-03-16T09:23:39.393Z,2.60
2024-03-16T09:26:11.947Z,2.15
2024-03-16T09:28:41.755Z,2.15
2024-03-16T09:31:11.848Z,6.07
2024-03-16T09:33:41.966Z,4.80
2024-03-16T09:36:12.231Z,4.35
2024-03-16T09:38:42.259Z,2.25
2024-03-16T09:41:21.786Z,1.95
